Time;durP1;ratioP1;P1;durP2;ratioP2;P2;SDS_P1;SDS_P2;PMS_P1;PMS_P2;Temp;Humidity;BMP_temperature;BMP_pressure;BME280_temperature;BME280_humidity;BME280_pressure;Samples;Min_cycle;Max_cycle;Signal;HPM_P1;HPM_P2
2022/08/02 00:02:24;;;;;;;9.52;8.82;;;;;;;17.45;80.76;100784.88;5024322;28;20037;-77
2022/08/02 00:04:50;;;;;;;9.40;8.80;;;;;;;17.39;81.26;100782.38;5026556;28;20047;-77
2022/08/02 00:07:16;;;;;;;10.57;9.65;;;;;;;17.39;81.84;100782.38;5026246;28;20128;-77
2022/08/02 00:09:42;;;;;;;10.05;9.23;;;;;;;17.40;81.34;100780.59;5028413;28;20117;-77
2022/08/02 00:12:07;;;;;;;9.63;8.93;;;;;;;17.35;81.27;100780.72;5026574;28;20034;-77
2022/08/02 00:14:33;;;;;;;8.77;8.27;;;;;;;17.34;81.36;100784.28;5027732;28;20083;-77
2022/08/02 00:16:58;;;;;;;11.02;9.80;;;;;;;17.28;81.33;100788.03;5024658;28;20178;-77
2022/08/02 00:19:23;;;;;;;9.48;8.70;;;;;;;17.35;81.42;100791.41;5025783;28;20480;-77
2022/08/02 00:21:49;;;;;;;9.75;9.05;;;;;;;17.38;81.89;100785.97;5027475;28;20061;-77
2022/08/02 00:24:14;;;;;;;9.77;8.98;;;;;;;17.35;84.19;100771.84;5030241;28;20484;-77
2022/08/02 00:26:39;;;;;;;10.70;9.80;;;;;;;17.36;83.57;100777.13;5005172;28;20042;-77
2022/08/02 00:29:05;;;;;;;10.60;9.60;;;;;;;17.31;83.11;100771.06;5026326;28;20047;-77
2022/08/02 00:31:30;;;;;;;11.73;10.70;;;;;;;17.29;83.06;100764.88;5029273;28;20065;-77
2022/08/02 00:33:56;;;;;;;12.48;11.05;;;;;;;17.25;83.20;100772.13;5025494;28;20029;-77
2022/08/02 00:36:21;;;;;;;10.90;9.88;;;;;;;17.19;83.20;100777.66;5025901;28;20029;-77
2022/08/02 00:38:47;;;;;;;10.52;9.45;;;;;;;17.12;83.53;100769.88;5028711;28;20073;-77
2022/08/02 00:41:18;;;;;;;11.93;10.93;;;;;;;17.11;82.97;100768.09;5015278;28;20038;-77
2022/08/02 00:43:45;;;;;;;11.15;10.05;;;;;;;17.03;83.24;100769.22;5027983;28;20388;-77
2022/08/02 00:46:10;;;;;;;11.68;10.57;;;;;;;16.88;84.38;100776.78;5010534;28;20039;-77
2022/08/02 00:48:36;;;;;;;12.02;10.70;;;;;;;16.68;87.15;100771.97;5024498;28;20048;-77
2022/08/02 00:51:01;;;;;;;12.20;9.70;;;;;;;16.61;86.07;100777.47;5026065;28;20041;-76
2022/08/02 00:53:27;;;;;;;10.80;9.75;;;;;;;16.64;84.65;100784.50;5024953;28;20396;-77
2022/08/02 00:55:52;;;;;;;11.20;10.20;;;;;;;16.64;84.09;100784.50;5025576;28;20038;-77
2022/08/02 00:58:17;;;;;;;11.80;10.60;;;;;;;16.60;84.99;100786.38;5021536;28;20152;-77
2022/08/02 01:00:43;;;;;;;11.88;10.27;;;;;;;16.55;85.02;100790.94;5008880;28;20025;-77
2022/08/02 01:03:08;;;;;;;12.32;11.13;;;;;;;16.52;84.96;100793.69;5025337;28;20403;-77
2022/08/02 01:05:33;;;;;;;11.02;10.02;;;;;;;16.45;85.39;100794.75;5025618;28;20038;-77
2022/08/02 01:07:59;;;;;;;11.30;10.30;;;;;;;16.44;85.51;100798.34;5024716;28;20116;-77
2022/08/02 01:10:24;;;;;;;10.73;9.63;;;;;;;16.51;86.57;100789.28;5027670;28;20442;-77
2022/08/02 01:12:49;;;;;;;10.10;9.10;;;;;;;16.58;86.39;100785.56;5024598;28;20502;-77
2022/08/02 01:15:16;;;;;;;10.73;9.68;;;;;;;16.62;86.12;100789.88;5026957;28;20418;-77
2022/08/02 01:18:10;;;;;;;10.38;9.60;;;;;;;16.62;85.57;100797.88;5007342;28;20030;-77
2022/08/02 01:20:58;;;;;;;10.80;9.75;;;;;;;16.61;84.47;100787.22;5025464;28;20037;-77
2022/08/02 01:23:59;;;;;;;9.38;8.68;;;;;;;16.51;85.41;100785.75;5022978;28;20510;-77
2022/08/02 01:26:43;;;;;;;9.40;8.50;;;;;;;16.47;85.44;100790.28;5026152;28;20033;-77
2022/08/02 01:29:17;;;;;;;9.40;8.52;;;;;;;16.53;85.57;100789.22;5011816;28;20065;-77
2022/08/02 01:31:55;;;;;;;9.30;8.60;;;;;;;16.62;86.34;100792.53;5023580;28;20038;-77
2022/08/02 01:34:36;;;;;;;10.55;9.65;;;;;;;16.65;85.09;100800.44;5026677;28;20475;-77
2022/08/02 01:37:13;;;;;;;10.18;9.35;;;;;;;16.72;85.60;100793.16;5006086;28;20073;-77
2022/08/02 01:39:41;;;;;;;10.85;9.95;;;;;;;16.90;85.14;100791.81;5024711;28;20483;-77
2022/08/02 01:42:09;;;;;;;9.45;8.80;;;;;;;16.96;84.94;100785.44;5001815;28;20057;-77
2022/08/02 01:44:37;;;;;;;9.48;8.77;;;;;;;17.10;84.04;100785.91;5025049;28;20040;-77
2022/08/02 01:47:09;;;;;;;10.48;9.68;;;;;;;17.15;83.88;100781.31;5023252;28;20041;-77
2022/08/02 01:49:38;;;;;;;10.20;9.50;;;;;;;17.11;83.34;100789.44;5026519;28;20033;-76
2022/08/02 01:52:21;;;;;;;11.02;10.23;;;;;;;17.23;83.63;100781.09;5010298;28;20121;-77
2022/08/02 01:55:03;;;;;;;11.25;10.35;;;;;;;17.45;82.82;100778.66;5026861;28;20107;-77
2022/08/02 01:57:35;;;;;;;9.75;9.05;;;;;;;17.62;81.95;100775.47;5011279;28;20029;-77
2022/08/02 02:00:03;;;;;;;10.95;9.95;;;;;;;17.69;81.84;100777.88;5014708;28;20040;-76
2022/08/02 02:02:33;;;;;;;9.93;9.23;;;;;;;17.64;82.61;100784.28;5025216;28;20033;-77
2022/08/02 02:05:01;;;;;;;10.68;9.98;;;;;;;17.61;83.05;100781.72;5026112;28;20045;-77
2022/08/02 02:07:29;;;;;;;11.73;10.73;;;;;;;17.64;81.95;100779.81;5022628;28;20041;-77
2022/08/02 02:09:57;;;;;;;11.50;10.60;;;;;;;17.64;82.03;100770.94;5023053;28;20037;-77
2022/08/02 02:12:23;;;;;;;11.30;10.13;;;;;;;17.59;81.52;100776.44;5011516;28;20061;-77
2022/08/02 02:14:49;;;;;;;11.43;10.63;;;;;;;17.44;82.28;100782.22;5007833;28;20034;-77
2022/08/02 02:17:16;;;;;;;11.07;10.27;;;;;;;17.36;82.19;100785.13;5023624;28;20108;-77
2022/08/02 02:19:42;;;;;;;12.18;9.95;;;;;;;17.35;81.45;100777.19;5023887;28;20064;-77
2022/08/02 02:22:08;;;;;;;10.43;9.63;;;;;;;17.35;80.98;100783.41;5005584;28;20018;-77
2022/08/02 02:24:34;;;;;;;9.93;9.15;;;;;;;17.37;80.73;100789.56;5024084;28;20060;-77
2022/08/02 02:27:02;;;;;;;9.73;9.02;;;;;;;17.40;80.53;100797.47;5022333;28;20093;-77
2022/08/02 02:29:30;;;;;;;10.63;9.93;;;;;;;17.37;80.72;100797.56;5026659;28;20025;-77
2022/08/02 02:31:58;;;;;;;10.18;9.38;;;;;;;17.37;80.41;100797.56;5025276;28;20492;-77
2022/08/02 02:34:25;;;;;;;10.10;9.30;;;;;;;17.43;80.48;100801.84;5030252;28;20033;-77
2022/08/02 02:36:52;;;;;;;11.40;10.50;;;;;;;17.42;81.03;100811.66;5028030;28;20037;-77
2022/08/02 02:39:21;;;;;;;10.63;9.82;;;;;;;17.40;81.51;100821.47;5032297;28;20078;-76
2022/08/02 02:41:48;;;;;;;9.93;9.23;;;;;;;17.39;81.56;100810.84;5024089;28;20109;-76
2022/08/02 02:44:18;;;;;;;11.00;10.20;;;;;;;17.42;81.22;100811.66;5029029;28;20468;-77
2022/08/02 02:46:43;;;;;;;10.95;10.15;;;;;;;17.31;81.58;100809.28;5008771;28;20095;-77
2022/08/02 02:49:10;;;;;;;10.63;9.80;;;;;;;17.29;81.72;100805.81;5029028;28;20527;-77
2022/08/02 02:51:39;;;;;;;10.43;9.63;;;;;;;17.33;81.63;100800.38;5023809;28;20085;-76
2022/08/02 02:54:05;;;;;;;10.85;9.98;;;;;;;17.32;81.20;100815.50;5004027;28;20479;-76
2022/08/02 02:56:31;;;;;;;10.77;10.07;;;;;;;17.31;80.86;100813.75;5024953;28;20120;-77
2022/08/02 02:58:59;;;;;;;10.88;9.77;;;;;;;17.19;80.78;100809.66;5033684;28;20116;-77
2022/08/02 03:01:29;;;;;;;10.75;9.98;;;;;;;17.12;81.29;100808.06;5030158;28;20030;-77
2022/08/02 03:03:56;;;;;;;10.75;9.45;;;;;;;17.12;81.74;100807.19;5026842;28;20108;-77
2022/08/02 03:06:21;;;;;;;11.90;10.90;;;;;;;17.15;80.81;100820.44;5028353;28;20120;-77
2022/08/02 03:08:47;;;;;;;11.75;10.68;;;;;;;17.10;80.52;100817.91;5043412;28;20156;-77
2022/08/02 03:11:13;;;;;;;12.13;10.02;;;;;;;17.04;80.87;100818.09;5027767;28;20064;-77
2022/08/02 03:13:38;;;;;;;11.85;10.85;;;;;;;17.04;80.71;100826.94;5023861;28;20044;-77
2022/08/02 03:16:04;;;;;;;10.88;10.07;;;;;;;17.11;80.33;100827.66;5030280;28;20131;-77
2022/08/02 03:18:35;;;;;;;11.38;10.48;;;;;;;17.20;79.89;100831.84;5027566;28;20143;-77
2022/08/02 03:21:10;;;;;;;12.23;9.77;;;;;;;17.25;79.94;100836.13;5024407;28;20034;-77
2022/08/02 03:23:36;;;;;;;10.30;9.60;;;;;;;17.27;79.38;100833.44;5025655;28;20034;-77
2022/08/02 03:26:02;;;;;;;11.07;10.07;;;;;;;17.24;78.88;100825.53;5028344;28;20040;-77
2022/08/02 03:28:27;;;;;;;10.75;10.00;;;;;;;17.23;79.30;100827.28;5028085;28;20108;-77
2022/08/02 03:30:52;;;;;;;10.75;9.93;;;;;;;17.28;78.87;100827.16;5027878;28;20041;-77
2022/08/02 03:33:19;;;;;;;10.50;9.50;;;;;;;17.25;78.73;100835.25;5027491;28;20411;-77
2022/08/02 03:35:46;;;;;;;12.10;11.00;;;;;;;17.21;78.76;100831.81;5028338;28;20030;-77
2022/08/02 03:38:13;;;;;;;10.95;10.07;;;;;;;17.17;78.57;100832.81;5029752;28;20458;-77
2022/08/02 03:40:40;;;;;;;10.57;9.80;;;;;;;17.16;78.81;100831.09;5025743;28;20061;-77
2022/08/02 03:43:07;;;;;;;11.35;10.50;;;;;;;17.13;78.91;100824.94;5027253;28;20487;-77
2022/08/02 03:45:33;;;;;;;10.80;9.90;;;;;;;17.06;79.84;100825.13;5029164;28;20029;-77
2022/08/02 03:47:58;;;;;;;12.35;10.40;;;;;;;17.01;79.96;100847.50;5033181;28;20502;-76
2022/08/02 03:50:25;;;;;;;10.80;10.02;;;;;;;17.00;79.75;100829.75;5021169;28;20037;-77
2022/08/02 03:52:51;;;;;;;10.88;10.07;;;;;;;17.01;79.61;100832.38;5022260;28;20061;-77
2022/08/02 03:55:16;;;;;;;12.00;10.70;;;;;;;17.04;79.93;100834.94;5013300;28;20033;-77
2022/08/02 03:57:42;;;;;;;10.70;9.68;;;;;;;17.04;79.34;100847.41;5023462;28;20404;-77
2022/08/02 04:00:10;;;;;;;10.18;9.38;;;;;;;17.07;78.73;100853.53;5025055;28;20129;-77
2022/08/02 04:02:38;;;;;;;10.50;9.60;;;;;;;17.07;78.76;100853.53;5024087;28;20041;-77
2022/08/02 04:05:04;;;;;;;10.55;9.73;;;;;;;17.09;78.73;100853.50;5022831;28;20137;-76
2022/08/02 04:07:29;;;;;;;11.55;10.68;;;;;;;17.21;78.65;100857.59;5030385;28;20034;-77
2022/08/02 04:09:55;;;;;;;10.98;10.07;;;;;;;17.21;78.18;100861.16;5024932;28;20038;-77
2022/08/02 04:12:20;;;;;;;11.43;10.38;;;;;;;17.20;78.40;100872.72;5020641;28;20091;-77
2022/08/02 04:14:45;;;;;;;10.85;9.98;;;;;;;17.23;78.48;100871.78;5023069;28;20068;-76
2022/08/02 04:17:13;;;;;;;11.43;10.48;;;;;;;17.21;78.06;100873.59;5030357;28;20057;-77
2022/08/02 04:19:59;;;;;;;12.48;11.07;;;;;;;17.21;77.63;100865.59;5024914;28;20136;-76
2022/08/02 04:22:30;;;;;;;10.10;9.32;;;;;;;17.21;77.72;100874.50;5020657;28;20034;-79
2022/08/02 04:24:59;;;;;;;11.10;10.20;;;;;;;17.20;77.40;100880.72;5028297;28;20459;-77
2022/08/02 04:27:25;;;;;;;11.05;10.25;;;;;;;17.19;77.41;100891.47;5024472;28;20397;-77
2022/08/02 04:29:51;;;;;;;10.68;9.98;;;;;;;17.17;77.33;100899.50;5023772;28;20044;-76
2022/08/02 04:32:17;;;;;;;10.88;9.98;;;;;;;17.18;77.24;100889.69;5016503;28;20037;-76
2022/08/02 04:34:44;;;;;;;11.23;10.38;;;;;;;17.19;76.93;100879.00;5031368;28;20064;-76
2022/08/02 04:37:11;;;;;;;11.40;10.48;;;;;;;17.20;76.83;100883.41;5033196;28;20509;-77
2022/08/02 04:39:37;;;;;;;10.00;9.35;;;;;;;17.24;76.45;100884.22;5021403;28;20065;-77
2022/08/02 04:42:02;;;;;;;10.98;9.80;;;;;;;17.16;77.00;100894.19;5023299;28;20049;-77
2022/08/02 04:44:28;;;;;;;11.50;10.45;;;;;;;17.14;76.85;100891.59;5020499;28;20558;-78
2022/08/02 04:46:54;;;;;;;10.68;9.98;;;;;;;17.10;77.08;100884.56;5029841;28;20032;-77
2022/08/02 04:49:20;;;;;;;10.57;9.82;;;;;;;17.06;77.04;100890.91;5024088;28;20107;-77
2022/08/02 04:51:45;;;;;;;10.85;10.05;;;;;;;17.07;77.10;100890.84;5021353;28;20395;-77
2022/08/02 04:54:10;;;;;;;11.57;10.38;;;;;;;17.07;76.76;100895.31;5032096;28;20025;-78
2022/08/02 04:56:37;;;;;;;11.07;10.38;;;;;;;17.05;76.98;100894.47;5031392;28;20085;-78
2022/08/02 04:59:02;;;;;;;10.90;9.80;;;;;;;17.08;77.15;100897.97;5028243;28;20049;-77
2022/08/02 05:01:27;;;;;;;10.73;9.82;;;;;;;17.19;76.69;100902.13;5032070;28;20083;-77
2022/08/02 05:03:53;;;;;;;12.65;9.98;;;;;;;17.24;76.84;100909.09;5024831;28;20480;-77
2022/08/02 05:06:18;;;;;;;12.52;11.27;;;;;;;17.39;76.68;100899.75;5032416;28;20042;-78
2022/08/02 05:08:45;;;;;;;10.88;9.93;;;;;;;17.58;75.87;100900.13;5022996;28;20034;-77
2022/08/02 05:11:10;;;;;;;11.32;10.40;;;;;;;17.72;74.81;100905.03;5019301;28;20037;-77
2022/08/02 05:13:35;;;;;;;9.20;8.50;;;;;;;17.81;74.07;100902.13;5022813;28;20044;-77
2022/08/02 05:16:03;;;;;;;9.57;8.98;;;;;;;17.72;73.96;100911.25;5032400;28;20041;-77
2022/08/02 05:18:29;;;;;;;9.70;9.00;;;;;;;17.77;73.75;100910.25;5023697;28;20038;-77
2022/08/02 05:20:54;;;;;;;11.07;9.85;;;;;;;17.82;73.39;100906.56;5018384;28;20038;-77
2022/08/02 05:23:19;;;;;;;11.13;10.25;;;;;;;17.82;73.51;100901.22;5021538;28;20188;-77
2022/08/02 05:25:45;;;;;;;9.25;8.55;;;;;;;17.84;73.04;100910.06;5022086;28;20124;-77
2022/08/02 05:28:10;;;;;;;9.50;8.70;;;;;;;17.92;72.65;100913.38;5018539;28;20190;-77
2022/08/02 05:30:35;;;;;;;13.70;10.05;;;;;;;18.09;72.87;100915.50;5021276;28;20045;-77
2022/08/02 05:33:01;;;;;;;10.57;9.77;;;;;;;18.28;71.86;100917.59;5026532;28;20056;-77
2022/08/02 05:35:26;;;;;;;10.50;9.60;;;;;;;18.39;71.64;100913.66;5020522;28;20172;-77
2022/08/02 05:37:52;;;;;;;10.73;9.65;;;;;;;18.57;71.41;100916.66;5021722;28;20045;-77
2022/08/02 05:40:17;;;;;;;9.85;9.00;;;;;;;18.66;70.70;100911.00;5023367;28;20048;-76
2022/08/02 05:42:43;;;;;;;10.27;9.32;;;;;;;18.72;70.78;100908.13;5023384;28;20032;-77
2022/08/02 05:45:09;;;;;;;8.85;8.15;;;;;;;18.68;70.94;100919.84;5028198;28;20037;-77
2022/08/02 05:47:35;;;;;;;9.80;9.00;;;;;;;18.69;71.01;100924.25;5021344;28;20235;-77
2022/08/02 05:50:00;;;;;;;8.63;7.97;;;;;;;18.82;71.38;100922.97;5029190;28;20466;-77
2022/08/02 05:52:39;;;;;;;9.20;8.50;;;;;;;19.01;70.59;100925.88;5027503;28;20036;-76
2022/08/02 05:55:12;;;;;;;11.30;10.15;;;;;;;19.18;70.69;100924.41;5025916;28;20053;-76
2022/08/02 05:58:12;;;;;;;11.38;10.57;;;;;;;19.46;69.73;100918.91;5020429;28;20033;-76
2022/08/02 06:00:40;;;;;;;10.48;9.63;;;;;;;19.50;69.76;100925.91;5025620;28;20119;-77
2022/08/02 06:03:15;;;;;;;10.52;9.63;;;;;;;19.68;69.99;100917.22;5029652;28;20034;-77
2022/08/02 06:05:49;;;;;;;9.85;9.15;;;;;;;19.90;69.36;100919.94;5028224;28;20052;-77
2022/08/02 06:08:14;;;;;;;10.23;9.23;;;;;;;20.04;68.87;100922.13;5036175;28;20032;-77
2022/08/02 06:10:41;;;;;;;10.93;10.02;;;;;;;20.13;68.38;100926.22;5035957;28;20043;-77
2022/08/02 06:13:12;;;;;;;10.05;9.25;;;;;;;20.21;68.25;100939.31;5028779;28;20048;-76
2022/08/02 06:15:39;;;;;;;10.10;9.30;;;;;;;20.28;67.75;100930.13;5027300;28;20112;-77
2022/08/02 06:18:06;;;;;;;9.40;8.70;;;;;;;20.32;67.48;100929.91;5034505;28;20037;-77
2022/08/02 06:20:34;;;;;;;9.30;8.32;;;;;;;20.30;67.33;100929.13;5032009;28;20080;-76
2022/08/02 06:23:04;;;;;;;9.65;8.45;;;;;;;20.23;67.67;100921.38;5031313;28;20041;-77
2022/08/02 06:25:31;;;;;;;9.90;9.05;;;;;;;20.23;67.36;100921.38;5024063;28;20033;-77
2022/08/02 06:27:59;;;;;;;8.88;8.15;;;;;;;20.34;66.94;100920.00;5034602;28;20123;-77
2022/08/02 06:30:24;;;;;;;9.50;8.70;;;;;;;20.45;66.86;100919.56;5025900;28;20033;-77
2022/08/02 06:32:50;;;;;;;9.43;8.63;;;;;;;20.51;66.94;100922.00;5025725;28;20119;-77
2022/08/02 06:35:16;;;;;;;9.27;8.68;;;;;;;20.61;66.74;100921.66;5030415;28;20028;-76
2022/08/02 06:37:57;;;;;;;9.98;8.98;;;;;;;20.69;66.38;100923.06;5032445;28;20160;-77
2022/08/02 06:40:48;;;;;;;9.52;8.77;;;;;;;20.78;66.40;100920.00;5030579;28;20124;-77
2022/08/02 06:43:25;;;;;;;9.52;8.82;;;;;;;20.91;66.15;100920.38;5028738;28;20695;-77
2022/08/02 06:45:50;;;;;;;9.13;8.23;;;;;;;20.99;66.03;100922.72;5029176;28;20047;-77
2022/08/02 06:48:16;;;;;;;9.02;8.32;;;;;;;21.05;65.55;100911.72;5024551;28;20045;-76
2022/08/02 06:50:43;;;;;;;10.10;9.30;;;;;;;21.09;64.74;100915.13;5027352;28;20030;-76
2022/08/02 06:53:09;;;;;;;9.32;8.30;;;;;;;21.02;65.20;100917.22;5022701;28;20037;-77
2022/08/02 06:55:34;;;;;;;10.10;9.25;;;;;;;21.14;65.84;100918.47;5026652;28;20624;-77
2022/08/02 06:58:00;;;;;;;14.60;13.07;;;;;;;21.16;65.07;100925.50;5025735;28;20174;-77
2022/08/02 07:00:27;;;;;;;14.48;13.20;;;;;;;21.18;64.77;100925.47;5030217;28;20380;-77
2022/08/02 07:02:52;;;;;;;9.80;9.00;;;;;;;21.22;65.02;100922.59;5020822;28;20057;-77
2022/08/02 07:05:18;;;;;;;10.07;9.35;;;;;;;21.20;65.07;100910.16;5032590;28;20033;-77
2022/08/02 07:07:44;;;;;;;10.95;10.10;;;;;;;21.40;64.88;100910.16;5027430;28;20033;-77
2022/08/02 07:10:09;;;;;;;11.50;10.57;;;;;;;21.44;63.55;100914.47;5030067;28;20048;-77
2022/08/02 07:12:35;;;;;;;11.57;10.32;;;;;;;21.47;63.89;100917.97;5030705;28;20037;-77
2022/08/02 07:15:03;;;;;;;11.63;10.73;;;;;;;21.63;63.23;100908.25;5030332;28;20044;-77
2022/08/02 07:17:29;;;;;;;12.35;10.63;;;;;;;21.74;62.72;100919.34;5024446;28;20041;-77
2022/08/02 07:19:55;;;;;;;13.05;12.10;;;;;;;21.94;61.62;100907.69;5027468;28;20037;-77
2022/08/02 07:22:22;;;;;;;12.75;11.43;;;;;;;21.95;60.68;100903.19;5026340;28;20083;-77
2022/08/02 07:24:48;;;;;;;13.68;12.35;;;;;;;21.99;61.29;100912.84;5029228;28;20030;-77
2022/08/02 07:27:13;;;;;;;11.68;10.77;;;;;;;22.14;61.23;100903.16;5014929;28;20041;-77
2022/08/02 07:29:39;;;;;;;12.27;11.48;;;;;;;22.35;60.97;100898.59;5029505;28;20107;-77
2022/08/02 07:32:05;;;;;;;11.25;10.48;;;;;;;22.44;59.45;100907.06;5028021;28;20466;-77
2022/08/02 07:34:30;;;;;;;12.65;11.73;;;;;;;22.39;59.22;100897.50;5023719;28;20184;-77
2022/08/02 07:36:55;;;;;;;12.13;11.43;;;;;;;22.40;58.72;100899.22;5026623;28;20080;-77
2022/08/02 07:39:21;;;;;;;11.88;11.07;;;;;;;22.54;59.32;100900.28;5027275;28;20061;-76
2022/08/02 07:41:50;;;;;;;11.98;11.18;;;;;;;22.54;58.62;100907.50;5022417;28;20068;-76
2022/08/02 07:44:16;;;;;;;13.05;11.75;;;;;;;22.53;58.17;100900.34;5028047;28;20095;-77
2022/08/02 07:46:41;;;;;;;12.52;11.55;;;;;;;22.64;58.22;100898.03;5028826;28;20487;-76
2022/08/02 07:49:06;;;;;;;11.93;11.15;;;;;;;22.71;57.15;100894.03;5021742;28;20041;-77
2022/08/02 07:51:32;;;;;;;11.98;11.27;;;;;;;22.80;57.09;100897.25;5032605;28;20037;-77
2022/08/02 07:53:57;;;;;;;14.02;13.23;;;;;;;22.84;56.24;100888.03;5029120;28;20041;-77
2022/08/02 07:56:22;;;;;;;11.93;11.23;;;;;;;22.76;56.93;100883.06;5028128;28;20467;-77
2022/08/02 07:58:48;;;;;;;12.48;11.48;;;;;;;22.93;57.28;100882.19;5022456;28;20120;-77
2022/08/02 08:01:13;;;;;;;12.25;11.55;;;;;;;23.07;55.90;100885.06;5030151;28;20076;-76
2022/08/02 08:03:38;;;;;;;12.00;11.23;;;;;;;23.20;55.50;100879.91;5010099;28;20033;-77
2022/08/02 08:06:04;;;;;;;14.93;13.85;;;;;;;23.17;55.95;100880.94;5029244;28;20048;-77
2022/08/02 08:08:29;;;;;;;13.38;12.60;;;;;;;23.38;55.62;100872.66;5031922;28;20045;-77
2022/08/02 08:10:54;;;;;;;13.50;12.57;;;;;;;23.56;55.11;100882.44;5027647;28;20554;-77
2022/08/02 08:13:20;;;;;;;13.85;12.95;;;;;;;23.65;54.75;100880.19;5022532;28;20479;-77
2022/08/02 08:15:45;;;;;;;13.65;12.73;;;;;;;23.75;53.43;100884.16;5024665;28;20037;-76
2022/08/02 08:18:10;;;;;;;13.60;12.60;;;;;;;23.83;53.76;100885.44;5024272;28;20033;-76
2022/08/02 08:20:36;;;;;;;14.85;13.88;;;;;;;23.97;53.34;100883.78;5027080;28;20098;-77
2022/08/02 08:23:02;;;;;;;14.23;13.10;;;;;;;23.88;52.44;100887.88;5019798;28;20381;-76
2022/08/02 08:25:27;;;;;;;17.35;14.98;;;;;;;23.95;52.77;100881.22;5028370;28;20029;-77
2022/08/02 08:27:52;;;;;;;14.57;13.30;;;;;;;24.06;51.97;100888.69;5020280;28;20069;-77
2022/08/02 08:30:20;;;;;;;14.63;13.60;;;;;;;24.18;51.95;100879.00;5031402;28;20068;-77
2022/08/02 08:32:46;;;;;;;13.73;12.82;;;;;;;24.20;51.30;100874.41;5019743;28;20555;-76
2022/08/02 08:35:12;;;;;;;13.40;12.27;;;;;;;24.27;50.83;100884.75;5027887;28;20033;-77
2022/08/02 08:37:38;;;;;;;13.15;12.25;;;;;;;24.30;50.14;100883.69;5018776;28;20484;-77
2022/08/02 08:40:04;;;;;;;14.68;13.82;;;;;;;24.34;50.17;100892.47;5026283;28;20041;-77
2022/08/02 08:42:30;;;;;;;14.00;13.00;;;;;;;24.36;50.10;100879.78;5023858;28;20025;-77
2022/08/02 08:44:57;;;;;;;14.40;13.60;;;;;;;24.55;49.88;100876.91;5026410;28;20026;-77
2022/08/02 08:47:24;;;;;;;15.63;14.55;;;;;;;24.68;48.73;100884.19;5024770;28;20033;-76
2022/08/02 08:49:54;;;;;;;16.27;15.02;;;;;;;24.89;48.40;100876.63;5027345;28;20068;-77
2022/08/02 08:52:22;;;;;;;16.15;15.10;;;;;;;25.22;48.57;100882.78;5022415;28;20030;-77
2022/08/02 08:54:48;;;;;;;15.98;14.77;;;;;;;25.30;47.08;100873.25;5024373;28;20042;-77
2022/08/02 08:57:15;;;;;;;14.35;13.38;;;;;;;25.44;47.57;100872.41;5026272;28;20068;-77
2022/08/02 08:59:40;;;;;;;14.77;13.80;;;;;;;25.50;46.31;100874.69;5025654;28;20083;-77
2022/08/02 09:02:06;;;;;;;15.00;13.82;;;;;;;25.73;45.55;100884.06;5025119;28;20037;-77
2022/08/02 09:04:31;;;;;;;12.02;11.18;;;;;;;26.00;45.85;100875.16;5028720;28;20049;-76
2022/08/02 09:06:57;;;;;;;13.77;12.88;;;;;;;26.08;45.06;100870.09;5023851;28;20030;-77
2022/08/02 09:09:23;;;;;;;13.25;12.48;;;;;;;26.22;45.09;100869.19;5022188;28;20155;-77
2022/08/02 09:11:48;;;;;;;12.90;11.90;;;;;;;26.30;44.45;100868.69;5024596;28;20026;-77
2022/08/02 09:14:26;;;;;;;12.68;11.77;;;;;;;26.31;43.85;100870.44;5032321;28;20029;-78
2022/08/02 09:16:52;;;;;;;14.98;14.00;;;;;;;26.25;44.88;100868.97;5029498;28;20030;-78
2022/08/02 09:19:23;;;;;;;13.68;12.85;;;;;;;26.13;43.13;100861.69;5022036;28;20025;-77
2022/08/02 09:22:00;;;;;;;14.68;13.77;;;;;;;26.27;43.33;100863.47;5024997;28;20041;-77
2022/08/02 09:24:25;;;;;;;14.07;13.15;;;;;;;26.15;43.41;100865.19;5036299;28;20044;-77
2022/08/02 09:26:51;;;;;;;13.35;12.55;;;;;;;26.44;43.78;100858.69;5024541;28;20033;-78
2022/08/02 09:29:20;;;;;;;13.48;12.48;;;;;;;26.69;43.24;100859.75;5027412;28;20132;-76
2022/08/02 09:31:46;;;;;;;13.32;12.43;;;;;;;26.86;42.48;100864.00;5024033;28;20068;-76
2022/08/02 09:34:11;;;;;;;14.20;13.27;;;;;;;26.72;41.85;100850.53;5027303;28;20068;-77
2022/08/02 09:36:42;;;;;;;13.32;12.52;;;;;;;26.78;42.26;100859.13;5027750;28;20038;-77
2022/08/02 09:39:10;;;;;;;14.43;13.57;;;;;;;26.84;42.51;100852.41;5025963;28;20091;-77
2022/08/02 09:41:39;;;;;;;15.70;14.50;;;;;;;26.97;42.40;100845.16;5021906;28;20038;-77
2022/08/02 09:44:06;;;;;;;12.52;11.73;;;;;;;27.15;41.51;100850.28;5027931;28;20052;-77
2022/08/02 09:46:37;;;;;;;14.52;13.50;;;;;;;27.13;41.55;100847.66;5024424;28;20088;-77
2022/08/02 09:49:06;;;;;;;15.38;14.45;;;;;;;27.21;40.88;100844.44;5020958;28;20069;-77
2022/08/02 09:51:47;;;;;;;13.95;13.05;;;;;;;27.14;41.48;100840.41;5025163;28;20025;-77
2022/08/02 09:54:16;;;;;;;14.07;13.18;;;;;;;27.36;41.39;100829.81;5027025;28;20037;-77
2022/08/02 09:56:48;;;;;;;12.75;11.95;;;;;;;27.50;40.53;100829.66;5022708;28;20078;-78
2022/08/02 09:59:16;;;;;;;15.65;14.45;;;;;;;27.31;40.59;100826.56;5019972;28;20029;-78
2022/08/02 10:01:42;;;;;;;13.13;12.05;;;;;;;27.51;40.96;100826.00;5033567;28;20360;-78
2022/08/02 10:04:10;;;;;;;12.13;11.32;;;;;;;27.45;40.08;100823.69;5026048;28;20120;-78
2022/08/02 10:06:38;;;;;;;13.65;12.75;;;;;;;27.56;40.93;100822.06;5022820;28;20041;-77
2022/08/02 10:09:05;;;;;;;12.80;11.95;;;;;;;27.55;40.02;100818.50;5022844;28;20042;-78
2022/08/02 10:11:31;;;;;;;12.30;11.52;;;;;;;27.45;39.91;100818.28;5027695;28;20033;-78
2022/08/02 10:13:56;;;;;;;12.65;11.85;;;;;;;27.39;40.14;100813.31;5018962;28;20117;-78
2022/08/02 10:16:23;;;;;;;12.45;11.65;;;;;;;27.35;40.29;100810.94;5052699;23;20136;-75
2022/08/02 10:18:53;;;;;;;14.70;13.68;;;;;;;27.43;39.29;100806.72;5058933;28;20044;-76
2022/08/02 10:21:22;;;;;;;14.05;13.05;;;;;;;27.36;39.66;100804.56;5061062;28;20024;-76
2022/08/02 10:23:48;;;;;;;15.82;14.55;;;;;;;27.37;38.98;100800.84;5055676;28;20502;-76
2022/08/02 10:26:16;;;;;;;12.25;11.45;;;;;;;27.45;38.69;100812.88;5050088;28;20171;-76
2022/08/02 10:28:45;;;;;;;13.75;12.95;;;;;;;27.22;40.44;100803.72;5039874;28;20482;-76
2022/08/02 10:31:13;;;;;;;13.48;12.68;;;;;;;27.34;40.02;100807.34;5024382;28;20071;-76
2022/08/02 10:33:39;;;;;;;13.80;12.55;;;;;;;27.40;39.82;100803.34;5042367;28;20037;-75
2022/08/02 10:36:07;;;;;;;12.95;12.15;;;;;;;27.47;39.52;100801.91;5040728;28;20048;-76
2022/08/02 10:38:33;;;;;;;13.48;12.57;;;;;;;27.75;40.18;100795.34;5041232;28;20032;-76
2022/08/02 10:40:58;;;;;;;13.90;12.93;;;;;;;27.88;38.25;100788.06;5039125;28;20111;-76
2022/08/02 10:43:35;;;;;;;13.73;12.73;;;;;;;27.94;38.77;100787.59;5041832;28;20048;-76
2022/08/02 10:46:19;;;;;;;11.68;10.88;;;;;;;28.11;38.19;100783.63;5040531;28;20064;-75
2022/08/02 10:49:08;;;;;;;12.95;12.13;;;;;;;28.44;38.24;100781.19;5039948;28;20479;-75
2022/08/02 10:52:01;;;;;;;12.57;11.73;;;;;;;28.54;37.95;100791.22;5043186;28;20116;-76
2022/08/02 10:54:30;;;;;;;13.10;12.23;;;;;;;28.46;37.88;100787.38;5045297;28;20049;-76
2022/08/02 10:56:58;;;;;;;13.52;12.73;;;;;;;28.51;37.39;100796.03;5045609;28;20037;-76
2022/08/02 10:59:26;;;;;;;13.70;12.63;;;;;;;28.29;37.41;100784.03;5044291;28;20039;-76
2022/08/02 11:02:00;;;;;;;12.82;12.07;;;;;;;28.50;37.52;100788.84;5045981;28;20528;-76
2022/08/02 11:04:30;;;;;;;13.32;12.25;;;;;;;28.67;36.98;100791.13;5048558;28;20107;-76
2022/08/02 11:07:05;;;;;;;12.48;11.55;;;;;;;28.92;36.82;100778.31;5041642;28;20466;-76
2022/08/02 11:09:33;;;;;;;13.77;12.88;;;;;;;29.10;36.78;100779.59;5043231;28;20560;-76
2022/08/02 11:12:07;;;;;;;12.07;11.10;;;;;;;29.02;35.93;100774.75;5049203;28;20687;-76
2022/08/02 11:14:35;;;;;;;11.75;11.05;;;;;;;29.07;36.61;100779.84;5045479;28;20079;-74
2022/08/02 11:17:08;;;;;;;12.23;11.38;;;;;;;28.88;37.09;100776.84;5044148;28;20128;-74
2022/08/02 11:19:54;;;;;;;12.02;11.07;;;;;;;28.61;36.37;100772.56;5051023;28;20041;-74